createdAt,value
2018-06-15T10:14:49.351Z,19.70
2018-06-15T10:17:17.566Z,20.50
2018-06-15T10:19:45.753Z,20.50
2018-06-15T10:22:13.939Z,20.70
2018-06-15T10:24:42.155Z,20.70
2018-06-15T10:27:10.407Z,20.40
2018-06-15T10:29:38.559Z,20.50
2018-06-15T10:32:06.778Z,20.70
2018-06-15T10:34:35.000Z,20.80
2018-06-15T10:37:03.219Z,21.00
2018-06-15T10:39:31.467Z,21.20
2018-06-15T10:41:59.650Z,21.20
2018-06-15T10:44:28.009Z,21.10
2018-06-15T10:46:56.278Z,21.00
2018-06-15T10:49:24.511Z,21.10
2018-06-15T10:51:52.721Z,21.10
2018-06-15T10:54:20.982Z,21.20
2018-06-15T10:56:49.185Z,21.20
2018-06-15T10:59:17.429Z,21.10
2018-06-15T11:01:45.646Z,21.20
2018-06-15T11:04:13.881Z,21.30
2018-06-15T11:06:42.071Z,21.30
2018-06-15T11:09:10.262Z,21.30
2018-06-15T11:11:38.462Z,21.30
2018-06-15T11:14:06.800Z,21.20
2018-06-15T11:16:35.000Z,21.30
2018-06-15T11:19:03.214Z,21.30
2018-06-15T11:21:31.409Z,21.30
2018-06-15T11:23:59.610Z,21.50
2018-06-15T11:26:27.804Z,21.40
2018-06-15T11:28:55.993Z,21.30
2018-06-15T11:31:24.196Z,21.30
2018-06-15T11:33:52.380Z,21.20
2018-06-15T11:36:20.547Z,21.10
2018-06-15T11:38:48.750Z,21.00
2018-06-15T11:41:17.014Z,21.00
2018-06-15T11:43:45.092Z,21.00
2018-06-15T11:46:13.240Z,20.90
2018-06-15T11:48:41.420Z,20.60
2018-06-15T11:51:09.604Z,20.80
2018-06-15T11:53:37.771Z,20.80
2018-06-15T11:56:06.035Z,20.90
2018-06-15T11:58:34.208Z,21.10
2018-06-15T12:01:02.419Z,21.00
2018-06-15T12:03:30.578Z,21.00
2018-06-15T12:05:58.826Z,21.10
2018-06-15T12:08:26.990Z,20.90
2018-06-15T12:10:55.134Z,21.00
2018-06-15T12:13:23.314Z,21.00
2018-06-15T12:15:51.517Z,21.10
2018-06-15T12:18:19.735Z,20.80
2018-06-15T12:20:47.899Z,20.60
2018-06-15T12:23:16.088Z,20.70
2018-06-15T12:25:44.246Z,20.90
2018-06-15T12:28:12.695Z,20.90
2018-06-15T12:30:41.228Z,20.80
2018-06-15T12:33:09.483Z,20.70
2018-06-15T12:35:37.695Z,20.80
2018-06-15T12:38:06.479Z,20.90
2018-06-15T12:40:34.953Z,20.90
2018-06-15T12:43:03.414Z,20.90
2018-06-15T12:45:31.706Z,20.90
2018-06-15T12:47:59.980Z,20.90
2018-06-15T12:50:28.653Z,21.00
2018-06-15T12:52:57.142Z,21.00
2018-06-15T12:55:26.149Z,21.10
2018-06-15T12:57:55.003Z,21.20
2018-06-15T13:00:24.493Z,21.10
2018-06-15T13:02:56.254Z,21.30
2018-06-15T13:05:24.625Z,21.50
2018-06-15T13:07:53.438Z,21.50
2018-06-15T13:10:21.974Z,21.70
2018-06-15T13:12:50.200Z,21.70
2018-06-15T13:15:18.790Z,22.00
2018-06-15T13:17:47.059Z,22.10
2018-06-15T13:20:15.240Z,22.10
2018-06-15T13:22:43.420Z,22.00
2018-06-15T13:25:11.694Z,22.10
2018-06-15T13:27:39.922Z,22.10
2018-06-15T13:30:08.201Z,22.20
2018-06-15T13:32:36.740Z,21.90
2018-06-15T13:35:05.060Z,21.90
2018-06-15T13:37:33.448Z,22.00
2018-06-15T13:40:01.716Z,21.90
2018-06-15T13:42:29.891Z,21.90
2018-06-15T13:44:58.446Z,21.80
2018-06-15T13:47:26.696Z,21.80
2018-06-15T13:49:55.045Z,21.90
2018-06-15T13:52:23.236Z,21.90
2018-06-15T13:54:51.425Z,21.90
2018-06-15T13:57:20.120Z,22.10
2018-06-15T13:59:48.353Z,22.10
2018-06-15T14:02:17.389Z,22.30
2018-06-15T14:04:45.641Z,22.20
2018-06-15T14:07:14.244Z,22.10
2018-06-15T14:09:42.428Z,22.00
2018-06-15T14:12:10.601Z,22.00
2018-06-15T14:14:38.785Z,22.00
2018-06-15T14:17:06.955Z,21.70
2018-06-15T14:19:36.293Z,21.70
2018-06-15T14:22:04.517Z,21.60
2018-06-15T14:24:32.695Z,21.70
2018-06-15T14:27:00.865Z,21.80
2018-06-15T14:29:29.048Z,21.90
2018-06-15T14:31:57.211Z,22.00
2018-06-15T14:34:25.389Z,22.10
2018-06-15T14:36:53.593Z,22.20
2018-06-15T14:39:21.771Z,22.10
2018-06-15T14:41:50.217Z,22.10
2018-06-15T14:44:18.401Z,22.10
2018-06-15T14:46:46.601Z,22.00
2018-06-15T14:49:17.017Z,22.00
2018-06-15T14:51:45.360Z,22.00
2018-06-15T14:54:13.551Z,22.10
2018-06-15T14:56:41.932Z,21.90
2018-06-15T14:59:10.184Z,21.80
2018-06-15T15:01:38.363Z,22.00
2018-06-15T15:04:06.765Z,22.00
2018-06-15T15:06:35.817Z,22.10
2018-06-15T15:09:05.465Z,22.00
2018-06-15T15:11:33.685Z,22.10
2018-06-15T15:14:01.904Z,22.20
2018-06-15T15:16:30.168Z,22.10
2018-06-15T15:18:58.340Z,22.10
2018-06-15T15:21:26.529Z,22.10
2018-06-15T15:23:54.709Z,22.10
2018-06-15T15:26:22.940Z,22.10
2018-06-15T15:28:51.105Z,22.10
2018-06-15T15:31:19.282Z,22.20
2018-06-15T15:33:47.474Z,22.10
2018-06-15T15:36:15.652Z,21.80
2018-06-15T15:38:43.856Z,21.70
2018-06-15T15:41:12.896Z,21.70
2018-06-15T15:43:41.322Z,21.60
2018-06-15T15:46:09.555Z,21.50
2018-06-15T15:48:38.567Z,21.30
2018-06-15T15:51:07.349Z,21.30
2018-06-15T15:53:35.570Z,21.30
2018-06-15T15:56:03.792Z,21.30
2018-06-15T15:58:32.506Z,21.30
2018-06-15T16:01:00.693Z,21.20
2018-06-15T16:03:28.925Z,21.20
2018-06-15T16:05:57.513Z,21.10
2018-06-15T16:08:25.747Z,21.10
2018-06-15T16:10:54.012Z,21.00
2018-06-15T16:13:22.634Z,20.90
2018-06-15T16:15:50.761Z,20.90
2018-06-15T16:18:18.946Z,20.90
2018-06-15T16:20:47.130Z,21.00
2018-06-15T16:23:15.285Z,21.10
2018-06-15T16:25:43.627Z,21.20
2018-06-15T16:28:11.814Z,21.20
2018-06-15T16:30:40.347Z,21.10
2018-06-15T16:33:08.564Z,21.10
2018-06-15T16:35:37.911Z,21.00
2018-06-15T16:38:06.478Z,21.00
2018-06-15T16:40:34.886Z,20.90
2018-06-15T16:43:03.091Z,20.80
2018-06-15T16:45:31.534Z,20.70
2018-06-15T16:47:59.702Z,20.60
2018-06-15T16:52:55.821Z,20.70
2018-06-15T16:55:23.984Z,20.70
2018-06-15T16:57:52.157Z,20.80
2018-06-15T17:00:20.363Z,20.70
2018-06-15T17:02:48.576Z,20.80
2018-06-15T17:05:16.755Z,20.80
2018-06-15T17:07:44.937Z,20.80
2018-06-15T17:10:14.056Z,20.80
2018-06-15T17:12:42.770Z,20.80
2018-06-15T17:15:10.982Z,20.70
2018-06-15T17:17:39.188Z,20.60
2018-06-15T17:20:07.394Z,20.60
2018-06-15T17:22:35.584Z,20.60
2018-06-15T17:25:03.826Z,20.50
2018-06-15T17:27:32.994Z,20.50
2018-06-15T17:30:01.298Z,20.40
2018-06-15T17:32:29.444Z,20.40
2018-06-15T17:37:25.935Z,20.40
2018-06-15T17:39:54.478Z,20.30
2018-06-15T17:42:22.657Z,20.30
2018-06-15T17:44:51.693Z,20.30
2018-06-15T17:47:19.859Z,20.40
2018-06-15T17:49:48.096Z,20.40
2018-06-15T17:52:16.256Z,20.40
2018-06-15T17:54:44.428Z,20.40
2018-06-15T17:57:12.637Z,20.30
2018-06-15T17:59:40.807Z,20.20
2018-06-15T18:02:08.979Z,20.20
2018-06-15T18:04:37.127Z,20.20
2018-06-15T18:07:05.447Z,20.20
2018-06-15T18:09:33.592Z,20.30
2018-06-15T18:12:01.769Z,20.30
2018-06-15T18:14:29.952Z,20.30
2018-06-15T18:16:58.129Z,20.30
2018-06-15T18:19:26.695Z,20.20
2018-06-15T18:21:54.896Z,20.30
2018-06-15T18:24:23.229Z,20.20
2018-06-15T18:26:51.424Z,20.10
2018-06-15T18:29:19.609Z,20.10
2018-06-15T18:31:47.808Z,20.10
2018-06-15T18:34:16.034Z,20.00
2018-06-15T18:36:44.224Z,19.90
2018-06-15T18:39:14.156Z,19.80
2018-06-15T18:41:42.789Z,19.80
2018-06-15T18:44:11.027Z,19.80
2018-06-15T18:46:39.256Z,19.80
2018-06-15T18:49:07.882Z,19.70
2018-06-15T18:51:36.248Z,19.70
2018-06-15T18:54:04.581Z,19.60
2018-06-15T18:56:32.774Z,19.50
2018-06-15T18:59:00.976Z,19.50
2018-06-15T19:01:29.260Z,19.50
2018-06-15T19:03:57.430Z,19.50
2018-06-15T19:06:25.599Z,19.50
2018-06-15T19:08:53.751Z,19.50
2018-06-15T19:11:22.236Z,19.40
2018-06-15T19:13:51.462Z,19.40
2018-06-15T19:16:19.927Z,19.40
2018-06-15T19:18:48.205Z,19.30
2018-06-15T19:21:16.369Z,19.30
2018-06-15T19:23:44.540Z,19.20
2018-06-15T19:26:12.741Z,19.10
2018-06-15T19:28:40.981Z,19.00
2018-06-15T19:31:09.170Z,19.00
2018-06-15T19:33:37.364Z,18.90
2018-06-15T19:36:05.543Z,18.90
2018-06-15T19:38:33.704Z,18.90
2018-06-15T19:41:01.904Z,18.80
2018-06-15T19:43:30.125Z,18.80
2018-06-15T19:45:58.324Z,18.70
2018-06-15T19:48:26.491Z,18.70
2018-06-15T19:50:54.777Z,18.70
2018-06-15T19:53:22.965Z,18.70
2018-06-15T19:55:51.148Z,18.60
2018-06-15T19:58:19.304Z,18.60
2018-06-15T20:00:47.519Z,18.50
2018-06-15T20:03:15.725Z,18.40
2018-06-15T20:08:39.803Z,18.40
2018-06-15T20:11:07.988Z,18.40
2018-06-15T20:13:36.186Z,18.40
2018-06-15T20:16:04.588Z,18.40
2018-06-15T20:18:32.764Z,18.30
2018-06-15T20:21:00.979Z,18.20
2018-06-15T20:23:29.126Z,18.20
2018-06-15T20:25:57.330Z,18.20
2018-06-15T20:28:25.525Z,18.20
2018-06-15T20:30:54.286Z,18.20
2018-06-15T20:33:22.422Z,18.20
2018-06-15T20:35:50.590Z,18.10
2018-06-15T20:38:18.815Z,18.10
2018-06-15T20:40:47.023Z,18.10
2018-06-15T20:43:15.483Z,18.10
2018-06-15T20:45:43.666Z,18.00
2018-06-15T20:48:11.830Z,18.00
2018-06-15T20:50:40.007Z,18.00
2018-06-15T20:53:08.231Z,18.00
2018-06-15T20:55:36.389Z,18.00
2018-06-15T20:58:04.586Z,18.00
2018-06-15T21:00:32.786Z,18.00
2018-06-15T21:03:00.993Z,17.90
2018-06-15T21:05:30.175Z,18.00
2018-06-15T21:07:58.383Z,17.90
2018-06-15T21:10:26.572Z,17.90
2018-06-15T21:12:54.786Z,17.80
2018-06-15T21:15:23.013Z,17.80
2018-06-15T21:17:51.218Z,17.80
2018-06-15T21:20:19.751Z,17.80
2018-06-15T21:22:47.938Z,17.80
2018-06-15T21:25:16.110Z,17.80
2018-06-15T21:27:44.286Z,17.80
2018-06-15T21:30:12.446Z,17.70
2018-06-15T21:32:40.664Z,17.70
2018-06-15T21:35:08.891Z,17.70
2018-06-15T21:37:37.157Z,17.70
2018-06-15T21:40:05.368Z,17.70
2018-06-15T21:42:33.683Z,17.60
2018-06-15T21:47:29.784Z,17.60
2018-06-15T21:49:57.998Z,17.50
2018-06-15T21:52:26.220Z,17.50
2018-06-15T21:54:54.404Z,17.40
2018-06-15T21:57:22.597Z,17.30
2018-06-15T21:59:50.829Z,17.30
2018-06-15T22:02:19.051Z,17.20
2018-06-15T22:04:47.219Z,17.10
2018-06-15T22:07:15.412Z,17.10
2018-06-15T22:09:43.617Z,17.00
2018-06-15T22:12:11.816Z,16.90
2018-06-15T22:14:39.989Z,16.80
2018-06-15T22:17:08.194Z,16.70
2018-06-15T22:19:36.413Z,16.60
2018-06-15T22:22:04.623Z,16.50
2018-06-15T22:24:32.816Z,16.40
2018-06-15T22:27:01.043Z,16.40
2018-06-15T22:29:29.256Z,16.30
2018-06-15T22:32:20.927Z,16.30
2018-06-15T22:34:49.118Z,16.20
2018-06-15T22:37:17.297Z,16.10
2018-06-15T22:39:45.497Z,16.00
2018-06-15T22:42:13.687Z,16.00
2018-06-15T22:44:42.857Z,15.90
2018-06-15T22:47:11.055Z,15.80
2018-06-15T22:49:39.250Z,15.70
2018-06-15T22:52:07.471Z,15.70
2018-06-15T22:54:35.687Z,15.60
2018-06-15T22:57:03.928Z,15.50
2018-06-15T22:59:33.020Z,15.40
2018-06-15T23:02:01.221Z,15.40
2018-06-15T23:06:57.343Z,15.30
2018-06-15T23:09:25.576Z,15.20
2018-06-15T23:11:53.777Z,15.10
2018-06-15T23:14:22.340Z,15.10
2018-06-15T23:16:50.552Z,15.00
2018-06-15T23:19:18.750Z,15.00
2018-06-15T23:21:46.948Z,14.90
2018-06-15T23:24:15.205Z,14.80
2018-06-15T23:26:43.405Z,14.80
2018-06-15T23:29:11.608Z,14.80
2018-06-15T23:34:14.196Z,14.70
2018-06-15T23:36:42.389Z,14.80
2018-06-15T23:39:10.700Z,14.80
2018-06-15T23:41:38.984Z,14.70
2018-06-15T23:44:07.206Z,14.80
2018-06-15T23:46:35.401Z,14.80
2018-06-15T23:49:03.606Z,14.80
2018-06-15T23:51:31.768Z,14.80
2018-06-15T23:53:59.932Z,14.80
2018-06-15T23:56:28.103Z,14.80
2018-06-15T23:58:56.736Z,14.90
